Time;durP1;ratioP1;P1;durP2;ratioP2;P2;SDS_P1;SDS_P2;PMS_P1;PMS_P2;Temp;Humidity;BMP_temperature;BMP_pressure;BME280_temperature;BME280_humidity;BME280_pressure;Samples;Min_cycle;Max_cycle;Signal;HPM_P1;HPM_P2
2022/11/10 00:01:57;;;;;;;7.57;3.27;;;;;;;;;;5095100;28;20283;-46
2022/11/10 00:04:23;;;;;;;7.10;3.00;;;;;;;;;;5095143;28;20272;-46
2022/11/10 00:06:49;;;;;;;9.10;3.30;;;;;;;;;;5095058;28;20202;-46
2022/11/10 00:09:15;;;;;;;8.37;3.20;;;;;;;;;;5094567;28;20705;-46
2022/11/10 00:11:41;;;;;;;12.67;3.83;;;;;;;;;;5095030;28;20226;-46
2022/11/10 00:16:59;;;;;;;6.50;3.13;;;;;;;;;;5093089;28;20263;-47
2022/11/10 00:19:25;;;;;;;7.13;2.60;;;;;;;;;;5093081;28;20228;-45
2022/11/10 00:21:51;;;;;;;7.27;2.73;;;;;;;;;;5092452;28;20199;-46
2022/11/10 00:24:18;;;;;;;7.00;2.83;;;;;;;;;;5094398;28;20202;-46
2022/11/10 00:26:44;;;;;;;6.73;2.50;;;;;;;;;;5092627;28;20611;-46
2022/11/10 00:29:11;;;;;;;10.53;2.90;;;;;;;;;;5093532;28;20198;-46
2022/11/10 00:31:37;;;;;;;4.60;2.57;;;;;;;;;;5093532;28;20299;-46
2022/11/10 00:34:03;;;;;;;8.43;3.10;;;;;;;;;;5094144;28;20199;-46
2022/11/10 00:36:30;;;;;;;10.50;2.97;;;;;;;;;;5094392;28;20229;-46
2022/11/10 00:38:56;;;;;;;6.97;2.47;;;;;;;;;;5094086;28;20198;-45
2022/11/10 00:41:22;;;;;;;7.53;2.80;;;;;;;;;;5094483;28;20201;-45
2022/11/10 00:43:48;;;;;;;5.90;2.60;;;;;;;;;;5094167;28;20195;-45
2022/11/10 00:46:15;;;;;;;8.63;2.90;;;;;;;;;;5094046;28;20586;-46
2022/11/10 00:48:42;;;;;;;7.40;2.80;;;;;;;;;;5092532;28;20256;-46
2022/11/10 00:51:09;;;;;;;8.17;3.47;;;;;;;;;;5093838;28;20576;-46
2022/11/10 00:53:35;;;;;;;10.40;3.17;;;;;;;;;;5092359;28;20207;-46
2022/11/10 00:56:01;;;;;;;7.13;2.87;;;;;;;;;;5093908;28;20248;-46
2022/11/10 00:58:27;;;;;;;7.07;2.80;;;;;;;;;;5093692;28;20187;-46
2022/11/10 01:00:59;;;;;;;9.23;4.00;;;;;;;;;;5094060;28;20275;-46
2022/11/10 01:03:27;;;;;;;8.30;3.60;;;;;;;;;;5093715;28;20699;-46
2022/11/10 01:05:53;;;;;;;9.17;3.47;;;;;;;;;;5092047;28;20768;-46
2022/11/10 01:08:19;;;;;;;9.03;3.53;;;;;;;;;;5093734;28;20246;-47
2022/11/10 01:10:45;;;;;;;8.40;3.53;;;;;;;;;;5093278;28;20255;-47
2022/11/10 01:13:11;;;;;;;7.57;3.57;;;;;;;;;;5093542;28;20195;-45
2022/11/10 01:15:38;;;;;;;5.70;3.40;;;;;;;;;;5093675;28;20191;-47
2022/11/10 01:18:04;;;;;;;11.10;3.83;;;;;;;;;;5093387;28;20295;-46
2022/11/10 01:20:32;;;;;;;7.00;3.30;;;;;;;;;;5089814;28;20314;-46
2022/11/10 01:22:58;;;;;;;8.07;3.87;;;;;;;;;;5093272;28;20658;-46
2022/11/10 01:25:24;;;;;;;6.87;3.90;;;;;;;;;;5092897;28;20313;-46
2022/11/10 01:27:50;;;;;;;9.47;3.67;;;;;;;;;;5093248;28;20198;-48
2022/11/10 01:30:17;;;;;;;8.03;3.93;;;;;;;;;;5093327;28;20199;-48
2022/11/10 01:32:43;;;;;;;8.87;3.83;;;;;;;;;;5093207;28;20222;-48
2022/11/10 01:35:10;;;;;;;11.13;3.67;;;;;;;;;;5093367;28;20195;-47
2022/11/10 01:37:37;;;;;;;6.63;3.00;;;;;;;;;;5093237;28;20191;-48
2022/11/10 01:40:04;;;;;;;8.37;3.87;;;;;;;;;;5092988;28;20577;-47
2022/11/10 01:42:40;;;;;;;8.17;3.60;;;;;;;;;;5092520;28;20464;-48
2022/11/10 01:45:34;;;;;;;12.40;4.10;;;;;;;;;;5092746;28;20254;-47
2022/11/10 01:48:03;;;;;;;7.53;3.80;;;;;;;;;;5092933;28;20198;-48
2022/11/10 01:50:32;;;;;;;10.87;3.57;;;;;;;;;;5092863;28;20227;-47
2022/11/10 01:53:01;;;;;;;7.60;3.60;;;;;;;;;;5092699;28;20198;-47
2022/11/10 01:55:28;;;;;;;11.40;4.53;;;;;;;;;;5092926;28;20619;-48
2022/11/10 01:57:54;;;;;;;10.43;4.07;;;;;;;;;;5092734;28;20714;-47
2022/11/10 02:00:21;;;;;;;10.97;4.63;;;;;;;;;;5093124;28;20578;-47
2022/11/10 02:02:50;;;;;;;9.40;3.80;;;;;;;;;;5092752;28;20199;-47
2022/11/10 02:05:16;;;;;;;7.57;4.37;;;;;;;;;;5092581;28;20237;-48
2022/11/10 02:07:42;;;;;;;8.27;4.37;;;;;;;;;;5092562;28;20608;-47
2022/11/10 02:10:14;;;;;;;6.90;3.90;;;;;;;;;;5092366;28;20198;-47
2022/11/10 02:12:40;;;;;;;11.40;4.37;;;;;;;;;;5092685;28;20222;-47
2022/11/10 02:15:08;;;;;;;8.30;3.60;;;;;;;;;;5092468;28;20244;-47
2022/11/10 02:17:34;;;;;;;9.43;4.10;;;;;;;;;;5092706;28;20199;-47
2022/11/10 02:20:03;;;;;;;8.60;4.27;;;;;;;;;;5091825;28;20294;-47
2022/11/10 02:22:31;;;;;;;11.37;5.10;;;;;;;;;;5089272;28;20230;-47
2022/11/10 02:24:57;;;;;;;14.00;4.37;;;;;;;;;;5091524;28;20227;-47
2022/11/10 02:27:23;;;;;;;6.17;4.50;;;;;;;;;;5091942;28;20206;-47
2022/11/10 02:29:49;;;;;;;10.83;5.53;;;;;;;;;;5091718;28;20203;-47
2022/11/10 02:32:15;;;;;;;12.90;5.10;;;;;;;;;;5091886;28;20198;-48
2022/11/10 02:34:41;;;;;;;9.97;4.80;;;;;;;;;;5091928;28;20233;-48
2022/11/10 02:37:09;;;;;;;8.73;4.97;;;;;;;;;;5091752;28;20194;-47
2022/11/10 02:39:36;;;;;;;11.97;5.70;;;;;;;;;;5091601;28;20237;-48
2022/11/10 02:42:02;;;;;;;11.97;5.67;;;;;;;;;;5091812;28;20245;-46
2022/11/10 02:44:28;;;;;;;11.80;5.73;;;;;;;;;;5091646;28;20203;-46
2022/11/10 02:46:54;;;;;;;12.30;5.90;;;;;;;;;;5091465;28;20198;-46
2022/11/10 02:49:20;;;;;;;11.23;5.80;;;;;;;;;;5091718;28;20191;-46
2022/11/10 02:51:46;;;;;;;9.80;5.93;;;;;;;;;;5091244;28;20717;-46
2022/11/10 02:54:12;;;;;;;11.20;5.67;;;;;;;;;;5091022;28;20259;-46
2022/11/10 02:56:39;;;;;;;10.70;5.47;;;;;;;;;;5091532;28;20195;-46
2022/11/10 02:59:05;;;;;;;10.07;5.37;;;;;;;;;;5091207;28;20293;-46
2022/11/10 03:01:32;;;;;;;12.00;5.80;;;;;;;;;;5091551;28;20198;-46
2022/11/10 03:03:58;;;;;;;11.20;5.77;;;;;;;;;;5091412;28;20198;-47
2022/11/10 03:06:24;;;;;;;9.70;5.00;;;;;;;;;;5091372;28;20229;-46
2022/11/10 03:08:50;;;;;;;11.63;6.17;;;;;;;;;;5091306;28;20301;-46
2022/11/10 03:11:16;;;;;;;10.77;6.13;;;;;;;;;;5091307;28;20864;-46
2022/11/10 03:13:43;;;;;;;11.23;5.70;;;;;;;;;;5091614;28;20210;-46
2022/11/10 03:16:09;;;;;;;12.43;6.27;;;;;;;;;;5091308;28;20561;-47
2022/11/10 03:18:35;;;;;;;10.37;5.23;;;;;;;;;;5091146;28;20210;-46
2022/11/10 03:21:01;;;;;;;11.20;5.67;;;;;;;;;;5091235;28;20569;-46
2022/11/10 03:23:27;;;;;;;13.53;5.90;;;;;;;;;;5091034;28;20203;-46
2022/11/10 03:25:53;;;;;;;10.30;5.67;;;;;;;;;;5091038;28;20214;-47
2022/11/10 03:28:19;;;;;;;11.40;5.93;;;;;;;;;;5091326;28;20202;-47
2022/11/10 03:30:46;;;;;;;10.47;5.17;;;;;;;;;;5091155;28;20207;-47
2022/11/10 03:33:12;;;;;;;9.77;5.30;;;;;;;;;;5091079;28;20232;-46
2022/11/10 03:35:38;;;;;;;10.27;5.67;;;;;;;;;;5091138;28;20233;-46
2022/11/10 03:38:04;;;;;;;10.13;5.50;;;;;;;;;;5091303;28;20191;-46
2022/11/10 03:40:30;;;;;;;12.20;6.57;;;;;;;;;;5090987;28;20658;-46
2022/11/10 03:42:56;;;;;;;9.10;5.37;;;;;;;;;;5091058;28;20232;-46
2022/11/10 03:45:23;;;;;;;14.63;6.40;;;;;;;;;;5090945;28;20829;-47
2022/11/10 03:47:50;;;;;;;12.77;6.43;;;;;;;;;;5091220;28;20203;-46
2022/11/10 03:50:16;;;;;;;10.57;6.20;;;;;;;;;;5090759;28;20203;-47
2022/11/10 03:52:43;;;;;;;11.97;6.23;;;;;;;;;;5091151;28;20202;-46
2022/11/10 03:55:10;;;;;;;12.23;6.33;;;;;;;;;;5090581;28;20649;-46
2022/11/10 03:57:36;;;;;;;14.17;6.60;;;;;;;;;;5090761;28;20191;-46
2022/11/10 04:00:03;;;;;;;15.30;7.83;;;;;;;;;;5090783;28;20199;-46
2022/11/10 04:02:29;;;;;;;9.73;7.27;;;;;;;;;;5090913;28;20190;-46
2022/11/10 04:10:26;;;;;;;16.10;7.73;;;;;;;;;;5094514;28;20194;-46
2022/11/10 04:15:42;;;;;;;19.53;7.63;;;;;;;;;;5094423;28;20226;-46
2022/11/10 04:18:20;;;;;;;13.10;7.17;;;;;;;;;;5094189;28;20198;-46
2022/11/10 04:20:48;;;;;;;13.07;7.03;;;;;;;;;;5094362;28;20195;-48
2022/11/10 04:23:26;;;;;;;12.77;8.00;;;;;;;;;;5094051;28;20199;-47
2022/11/10 04:28:38;;;;;;;13.10;8.00;;;;;;;;;;5094212;28;20316;-46
2022/11/10 04:31:04;;;;;;;14.20;7.17;;;;;;;;;;5093801;28;20197;-46
2022/11/10 04:33:30;;;;;;;13.93;7.47;;;;;;;;;;5094339;28;20201;-47
2022/11/10 04:35:57;;;;;;;14.83;8.33;;;;;;;;;;5093959;28;20191;-47
2022/11/10 04:38:23;;;;;;;14.20;7.77;;;;;;;;;;5093955;28;20230;-47
2022/11/10 04:40:49;;;;;;;15.87;7.83;;;;;;;;;;5094058;28;20650;-48
2022/11/10 04:43:15;;;;;;;10.80;8.03;;;;;;;;;;5093652;28;20294;-47
2022/11/10 04:45:42;;;;;;;14.90;8.10;;;;;;;;;;5093559;28;20237;-47
2022/11/10 04:48:08;;;;;;;9.60;8.20;;;;;;;;;;5093610;28;20206;-46
2022/11/10 04:50:34;;;;;;;15.00;8.30;;;;;;;;;;5093393;28;20234;-48
2022/11/10 04:53:02;;;;;;;15.50;9.70;;;;;;;;;;5093465;28;20547;-47
2022/11/10 04:55:28;;;;;;;14.63;8.73;;;;;;;;;;5093762;28;20202;-47
2022/11/10 04:57:54;;;;;;;13.30;9.60;;;;;;;;;;5093073;28;20205;-47
2022/11/10 05:00:20;;;;;;;14.53;9.07;;;;;;;;;;5093580;28;20195;-47
2022/11/10 05:02:46;;;;;;;24.43;10.30;;;;;;;;;;5093102;28;20297;-46
2022/11/10 05:05:12;;;;;;;14.30;9.20;;;;;;;;;;5093334;28;20756;-46
2022/11/10 05:07:38;;;;;;;12.83;8.87;;;;;;;;;;5093333;28;20203;-46
2022/11/10 05:10:05;;;;;;;16.53;9.77;;;;;;;;;;5093305;28;20287;-47
2022/11/10 05:12:31;;;;;;;20.10;9.77;;;;;;;;;;5093459;28;20210;-46
2022/11/10 05:14:57;;;;;;;15.63;10.83;;;;;;;;;;5093232;28;20195;-46
2022/11/10 05:17:23;;;;;;;18.53;12.20;;;;;;;;;;5092927;28;20286;-46
2022/11/10 05:19:49;;;;;;;16.17;10.07;;;;;;;;;;5093118;28;20244;-47
2022/11/10 05:22:15;;;;;;;17.10;10.47;;;;;;;;;;5093130;28;20268;-47
2022/11/10 05:24:42;;;;;;;14.03;10.57;;;;;;;;;;5093012;28;20203;-48
2022/11/10 05:27:09;;;;;;;13.90;10.80;;;;;;;;;;5092809;28;20226;-46
2022/11/10 05:29:35;;;;;;;16.90;11.60;;;;;;;;;;5092935;28;20253;-47
2022/11/10 05:32:01;;;;;;;20.10;12.10;;;;;;;;;;5092784;28;20195;-47
2022/11/10 05:34:27;;;;;;;16.77;11.87;;;;;;;;;;5092696;28;20222;-47
2022/11/10 05:36:53;;;;;;;16.47;11.33;;;;;;;;;;5092121;28;20195;-47
2022/11/10 05:39:19;;;;;;;19.23;13.30;;;;;;;;;;5092714;28;20207;-47
2022/11/10 05:41:45;;;;;;;17.87;11.93;;;;;;;;;;5092448;28;20203;-47
2022/11/10 05:44:13;;;;;;;17.30;12.50;;;;;;;;;;5092698;28;20259;-47
2022/11/10 05:46:39;;;;;;;21.93;11.53;;;;;;;;;;5092562;28;20309;-47
2022/11/10 05:49:05;;;;;;;22.93;12.90;;;;;;;;;;5092404;28;20199;-47
2022/11/10 05:51:31;;;;;;;20.50;12.43;;;;;;;;;;5092568;28;20238;-47
2022/11/10 05:53:57;;;;;;;22.63;12.23;;;;;;;;;;5092340;28;20649;-47
2022/11/10 05:56:23;;;;;;;17.97;12.70;;;;;;;;;;5092449;28;20248;-47
2022/11/10 05:58:49;;;;;;;17.50;13.20;;;;;;;;;;5092308;28;20198;-47
2022/11/10 06:01:17;;;;;;;19.03;13.17;;;;;;;;;;5092167;28;20249;-47
2022/11/10 06:03:43;;;;;;;19.47;13.60;;;;;;;;;;5092204;28;20782;-47
2022/11/10 06:06:09;;;;;;;19.03;13.20;;;;;;;;;;5091613;28;20222;-47
2022/11/10 06:08:35;;;;;;;20.93;14.53;;;;;;;;;;5090457;28;20210;-48
2022/11/10 06:11:01;;;;;;;21.53;14.67;;;;;;;;;;5090739;28;20194;-47
2022/11/10 06:13:28;;;;;;;16.17;13.30;;;;;;;;;;5091893;28;20271;-47
2022/11/10 06:15:54;;;;;;;18.90;14.63;;;;;;;;;;5092018;28;20215;-48
2022/11/10 06:18:21;;;;;;;21.27;15.17;;;;;;;;;;5092156;28;20207;-46
2022/11/10 06:20:47;;;;;;;20.23;14.07;;;;;;;;;;5091533;28;20199;-46
2022/11/10 06:23:14;;;;;;;21.53;15.20;;;;;;;;;;5092424;28;20197;-46
2022/11/10 06:25:41;;;;;;;21.87;14.50;;;;;;;;;;5091866;28;20226;-46
2022/11/10 06:28:08;;;;;;;22.03;14.97;;;;;;;;;;5091872;28;20191;-46
2022/11/10 06:30:34;;;;;;;22.00;16.57;;;;;;;;;;5091491;28;20304;-46
2022/11/10 06:33:00;;;;;;;19.87;15.10;;;;;;;;;;5091999;28;20599;-46
2022/11/10 06:35:28;;;;;;;21.90;15.43;;;;;;;;;;5092053;28;20191;-46
2022/11/10 06:37:58;;;;;;;28.40;16.17;;;;;;;;;;5091820;28;20217;-46
2022/11/10 06:40:25;;;;;;;22.63;16.17;;;;;;;;;;5091979;28;20198;-47
2022/11/10 06:42:51;;;;;;;24.53;16.23;;;;;;;;;;5091837;28;20642;-46
2022/11/10 06:45:17;;;;;;;19.73;17.10;;;;;;;;;;5091493;28;20219;-46
2022/11/10 06:47:43;;;;;;;21.73;17.20;;;;;;;;;;5091676;28;20240;-47
2022/11/10 06:50:09;;;;;;;26.23;18.23;;;;;;;;;;5091407;28;20260;-46
2022/11/10 06:52:37;;;;;;;28.13;18.90;;;;;;;;;;5091194;28;20238;-46
2022/11/10 06:55:03;;;;;;;23.10;18.37;;;;;;;;;;5091412;28;20301;-46
2022/11/10 06:57:29;;;;;;;28.67;19.27;;;;;;;;;;5091499;28;20221;-46
2022/11/10 06:59:55;;;;;;;30.40;17.70;;;;;;;;;;5091684;28;20248;-46
2022/11/10 07:02:21;;;;;;;25.43;18.80;;;;;;;;;;5091223;28;20198;-46
2022/11/10 07:04:49;;;;;;;24.00;17.40;;;;;;;;;;5091223;28;20223;-46
2022/11/10 07:07:15;;;;;;;23.10;17.90;;;;;;;;;;5091124;28;20259;-46
2022/11/10 07:09:43;;;;;;;23.03;18.10;;;;;;;;;;5090832;28;20287;-46
2022/11/10 07:12:09;;;;;;;24.60;17.73;;;;;;;;;;5091392;28;20211;-46
2022/11/10 07:14:35;;;;;;;29.40;17.83;;;;;;;;;;5091298;28;20179;-46
2022/11/10 07:17:01;;;;;;;21.00;18.13;;;;;;;;;;5090996;28;20198;-46
2022/11/10 07:19:27;;;;;;;26.53;18.53;;;;;;;;;;5090524;28;20198;-46
2022/11/10 07:21:53;;;;;;;20.90;17.87;;;;;;;;;;5088660;28;20228;-46
2022/11/10 07:24:19;;;;;;;24.97;17.27;;;;;;;;;;5090835;28;20281;-46
2022/11/10 07:26:46;;;;;;;21.87;17.17;;;;;;;;;;5091239;28;20223;-46
2022/11/10 07:29:12;;;;;;;23.77;17.37;;;;;;;;;;5090268;28;20235;-46
2022/11/10 07:31:38;;;;;;;24.97;18.73;;;;;;;;;;5091521;28;20229;-46
2022/11/10 07:34:04;;;;;;;23.90;18.23;;;;;;;;;;5090882;28;20223;-46
2022/11/10 07:36:30;;;;;;;26.87;17.40;;;;;;;;;;5091393;28;20260;-46
2022/11/10 07:38:57;;;;;;;19.70;15.83;;;;;;;;;;5091110;28;20653;-46
2022/11/10 07:41:23;;;;;;;24.13;17.43;;;;;;;;;;5091934;28;20203;-46
2022/11/10 07:43:50;;;;;;;23.07;16.70;;;;;;;;;;5095185;28;20466;-47
2022/11/10 07:46:16;;;;;;;25.30;17.50;;;;;;;;;;5094877;28;20255;-46
2022/11/10 07:48:42;;;;;;;27.37;17.63;;;;;;;;;;5094949;28;20248;-46
2022/11/10 07:51:08;;;;;;;24.57;17.60;;;;;;;;;;5094862;28;20226;-46
2022/11/10 07:53:34;;;;;;;21.53;16.70;;;;;;;;;;5094462;28;20199;-46
2022/11/10 07:56:00;;;;;;;22.53;16.37;;;;;;;;;;5094718;28;20279;-46
2022/11/10 07:58:28;;;;;;;22.03;15.47;;;;;;;;;;5094431;28;20628;-46
2022/11/10 08:00:55;;;;;;;23.77;16.80;;;;;;;;;;5094554;28;20221;-47
2022/11/10 08:03:21;;;;;;;19.10;14.33;;;;;;;;;;5094555;28;20206;-46
2022/11/10 08:05:48;;;;;;;21.90;15.73;;;;;;;;;;5094644;28;20241;-46
2022/11/10 08:08:14;;;;;;;21.53;15.03;;;;;;;;;;5094434;28;20297;-47
2022/11/10 08:10:41;;;;;;;18.57;14.90;;;;;;;;;;5094216;28;20199;-46
2022/11/10 08:13:07;;;;;;;23.23;15.07;;;;;;;;;;5094442;28;20722;-47
2022/11/10 08:15:34;;;;;;;23.67;17.00;;;;;;;;;;5093327;28;20198;-48
2022/11/10 08:18:03;;;;;;;22.63;13.90;;;;;;;;;;5094004;28;20195;-47
2022/11/10 08:20:29;;;;;;;18.43;12.93;;;;;;;;;;5094179;28;20252;-48
2022/11/10 08:22:59;;;;;;;20.70;13.80;;;;;;;;;;5093481;28;20201;-47
2022/11/10 08:25:25;;;;;;;22.70;13.73;;;;;;;;;;5091305;28;20254;-47
2022/11/10 08:27:56;;;;;;;16.20;13.13;;;;;;;;;;5094259;28;20199;-47
2022/11/10 08:30:22;;;;;;;27.00;14.03;;;;;;;;;;5094133;28;20215;-48
2022/11/10 08:32:48;;;;;;;24.57;15.37;;;;;;;;;;5093871;28;20218;-47
2022/11/10 08:35:15;;;;;;;18.33;13.87;;;;;;;;;;5093670;28;20191;-47
2022/11/10 08:37:41;;;;;;;25.30;14.93;;;;;;;;;;5093993;28;20241;-47
2022/11/10 08:40:08;;;;;;;24.70;14.50;;;;;;;;;;5093864;28;20191;-46
2022/11/10 08:42:34;;;;;;;19.30;12.87;;;;;;;;;;5093920;28;20195;-47
2022/11/10 08:45:00;;;;;;;23.13;13.57;;;;;;;;;;5093559;28;20195;-47
2022/11/10 08:47:26;;;;;;;19.67;12.27;;;;;;;;;;5093343;28;20224;-47
2022/11/10 08:49:52;;;;;;;28.80;12.10;;;;;;;;;;5093472;28;20206;-47
2022/11/10 08:52:19;;;;;;;16.80;11.43;;;;;;;;;;5092632;28;20599;-47
2022/11/10 08:54:45;;;;;;;21.27;11.63;;;;;;;;;;5093942;28;20207;-47
2022/11/10 08:57:11;;;;;;;18.97;11.90;;;;;;;;;;5093366;28;20206;-47
2022/11/10 08:59:37;;;;;;;16.03;10.83;;;;;;;;;;5093475;28;20645;-47
2022/11/10 09:02:03;;;;;;;18.67;10.67;;;;;;;;;;5093447;28;20214;-47
2022/11/10 09:04:29;;;;;;;16.47;9.43;;;;;;;;;;5093530;28;20256;-48
2022/11/10 09:06:56;;;;;;;15.00;8.67;;;;;;;;;;5093193;28;20292;-48
2022/11/10 09:09:25;;;;;;;15.23;9.07;;;;;;;;;;5093158;28;20214;-48
2022/11/10 09:11:51;;;;;;;14.03;7.60;;;;;;;;;;5093235;28;20202;-48
2022/11/10 09:14:17;;;;;;;12.07;7.97;;;;;;;;;;5093022;28;20647;-48
2022/11/10 09:16:43;;;;;;;12.83;7.50;;;;;;;;;;5093126;28;20191;-48
2022/11/10 09:19:09;;;;;;;17.60;7.70;;;;;;;;;;5092890;28;20296;-48
2022/11/10 09:21:35;;;;;;;10.50;7.03;;;;;;;;;;5093267;28;20215;-49
2022/11/10 09:24:01;;;;;;;12.73;6.60;;;;;;;;;;5092713;28;20195;-49
2022/11/10 09:26:31;;;;;;;9.70;5.70;;;;;;;;;;5092517;28;20238;-48
2022/11/10 09:28:57;;;;;;;13.63;6.60;;;;;;;;;;5093186;28;20307;-47
2022/11/10 09:31:23;;;;;;;12.33;7.10;;;;;;;;;;5093175;28;20202;-48
2022/11/10 09:33:49;;;;;;;12.40;6.10;;;;;;;;;;5091185;28;20570;-48
2022/11/10 09:36:15;;;;;;;13.93;6.77;;;;;;;;;;5092463;28;20246;-47
2022/11/10 09:38:41;;;;;;;10.10;6.50;;;;;;;;;;5092600;28;20233;-48
2022/11/10 09:41:08;;;;;;;16.37;6.83;;;;;;;;;;5092536;28;20811;-49
2022/11/10 09:43:39;;;;;;;12.17;5.77;;;;;;;;;;5092706;28;20196;-47
2022/11/10 09:46:10;;;;;;;10.03;6.03;;;;;;;;;;5092314;28;20230;-48
2022/11/10 09:48:38;;;;;;;9.00;5.60;;;;;;;;;;5092656;28;20200;-47
2022/11/10 09:51:06;;;;;;;10.63;5.70;;;;;;;;;;5092130;28;20252;-48
2022/11/10 09:53:36;;;;;;;10.10;5.40;;;;;;;;;;5092443;28;20201;-49
2022/11/10 09:56:03;;;;;;;8.43;4.97;;;;;;;;;;5092235;28;20237;-49
2022/11/10 09:58:31;;;;;;;11.00;5.70;;;;;;;;;;5092165;28;20623;-48
2022/11/10 10:01:02;;;;;;;13.80;5.77;;;;;;;;;;5092248;28;20205;-49
2022/11/10 10:03:31;;;;;;;10.33;4.97;;;;;;;;;;5091439;28;20641;-50
2022/11/10 10:06:01;;;;;;;9.67;5.20;;;;;;;;;;5091631;28;20230;-49
2022/11/10 10:08:32;;;;;;;11.10;5.47;;;;;;;;;;5092064;28;20222;-49
2022/11/10 10:11:05;;;;;;;10.17;5.43;;;;;;;;;;5090950;28;20610;-47
2022/11/10 10:13:44;;;;;;;11.43;5.60;;;;;;;;;;5091732;28;20206;-47
2022/11/10 10:16:15;;;;;;;15.87;5.60;;;;;;;;;;5092036;28;20714;-47
2022/11/10 10:18:48;;;;;;;12.57;5.47;;;;;;;;;;5092189;28;20214;-47
2022/11/10 10:21:24;;;;;;;11.90;5.50;;;;;;;;;;5091571;28;20203;-46
2022/11/10 10:23:51;;;;;;;11.10;6.47;;;;;;;;;;5091206;28;20202;-46
2022/11/10 10:26:21;;;;;;;14.03;5.60;;;;;;;;;;5092047;28;20232;-46
2022/11/10 10:28:48;;;;;;;13.03;5.47;;;;;;;;;;5091731;28;20238;-47
2022/11/10 10:31:18;;;;;;;10.43;5.13;;;;;;;;;;5091914;28;20205;-47
2022/11/10 10:33:44;;;;;;;11.40;5.20;;;;;;;;;;5091725;28;20205;-47
2022/11/10 10:36:15;;;;;;;10.97;5.53;;;;;;;;;;5091486;28;20276;-47
2022/11/10 10:38:42;;;;;;;12.20;5.33;;;;;;;;;;5091616;28;20214;-47
2022/11/10 10:41:13;;;;;;;9.87;5.70;;;;;;;;;;5090508;28;20198;-47
2022/11/10 10:43:40;;;;;;;14.03;5.73;;;;;;;;;;5091611;28;20249;-47
2022/11/10 10:46:07;;;;;;;14.20;5.33;;;;;;;;;;5091338;28;20320;-47
2022/11/10 10:48:34;;;;;;;12.80;5.73;;;;;;;;;;5091703;28;20194;-47
2022/11/10 10:51:00;;;;;;;12.17;4.70;;;;;;;;;;5091188;28;20594;-47
2022/11/10 10:53:26;;;;;;;9.03;4.20;;;;;;;;;;5091245;28;20595;-47
2022/11/10 10:55:58;;;;;;;11.53;4.23;;;;;;;;;;5090880;28;20196;-47
2022/11/10 10:58:26;;;;;;;8.13;3.97;;;;;;;;;;5090993;28;20200;-47
2022/11/10 11:00:53;;;;;;;8.50;4.07;;;;;;;;;;5091288;28;20640;-47
2022/11/10 11:03:24;;;;;;;24.60;20.27;;;;;;;;;;5091319;28;20254;-48
2022/11/10 11:06:04;;;;;;;10.50;4.40;;;;;;;;;;5091237;28;20832;-48
2022/11/10 11:08:32;;;;;;;11.50;4.57;;;;;;;;;;5088779;28;20675;-47
2022/11/10 11:11:06;;;;;;;9.30;4.20;;;;;;;;;;5090885;28;20201;-47
2022/11/10 11:13:32;;;;;;;9.57;4.00;;;;;;;;;;5090568;28;20225;-47
2022/11/10 11:15:59;;;;;;;9.77;4.43;;;;;;;;;;5093169;28;20189;-47
2022/11/10 11:18:26;;;;;;;11.10;4.37;;;;;;;;;;5095371;28;20252;-47
2022/11/10 11:20:57;;;;;;;11.57;4.00;;;;;;;;;;5095116;28;20202;-47
2022/11/10 11:23:45;;;;;;;11.07;4.60;;;;;;;;;;5094926;28;20203;-47
2022/11/10 11:26:14;;;;;;;12.47;4.33;;;;;;;;;;5095065;28;20240;-47
2022/11/10 11:28:44;;;;;;;13.23;3.90;;;;;;;;;;5095315;28;20195;-46
2022/11/10 11:31:17;;;;;;;10.47;3.70;;;;;;;;;;5095179;28;20194;-46
2022/11/10 11:33:45;;;;;;;12.43;3.80;;;;;;;;;;5095111;28;20221;-46
2022/11/10 11:36:16;;;;;;;9.33;3.20;;;;;;;;;;5095084;28;20214;-46
2022/11/10 11:38:49;;;;;;;19.67;13.93;;;;;;;;;;5095101;28;20183;-46
2022/11/10 11:41:23;;;;;;;11.23;3.93;;;;;;;;;;5094914;28;20290;-48
2022/11/10 11:43:55;;;;;;;12.40;3.50;;;;;;;;;;5095024;28;20220;-47
2022/11/10 11:46:27;;;;;;;13.13;3.37;;;;;;;;;;5094613;28;20696;-48
2022/11/10 11:49:00;;;;;;;11.30;3.47;;;;;;;;;;5094917;28;20202;-47
2022/11/10 11:51:30;;;;;;;8.63;3.00;;;;;;;;;;5094486;28;20594;-48
2022/11/10 11:54:06;;;;;;;9.20;3.30;;;;;;;;;;5094791;28;20192;-47
2022/11/10 11:56:34;;;;;;;6.97;3.20;;;;;;;;;;5094758;28;20248;-48
2022/11/10 11:59:08;;;;;;;9.03;3.63;;;;;;;;;;5094667;28;20194;-47
2022/11/10 12:01:42;;;;;;;8.40;3.37;;;;;;;;;;5094435;28;20677;-46
2022/11/10 12:04:21;;;;;;;9.93;3.60;;;;;;;;;;5094441;28;20191;-46
2022/11/10 12:06:52;;;;;;;9.10;3.07;;;;;;;;;;5093536;28;20376;-47
2022/11/10 12:09:24;;;;;;;9.33;2.90;;;;;;;;;;5093177;28;20215;-46
2022/11/10 12:11:58;;;;;;;12.33;3.20;;;;;;;;;;5094374;28;20195;-47
2022/11/10 12:14:28;;;;;;;10.60;3.20;;;;;;;;;;5094317;28;20195;-46
2022/11/10 12:16:59;;;;;;;7.60;3.20;;;;;;;;;;5094534;28;20187;-46
2022/11/10 12:19:29;;;;;;;10.17;3.20;;;;;;;;;;5094367;28;20290;-48
2022/11/10 12:21:57;;;;;;;11.17;3.27;;;;;;;;;;5094291;28;20200;-46
2022/11/10 12:24:31;;;;;;;13.07;3.53;;;;;;;;;;5094302;28;20210;-48
2022/11/10 12:26:59;;;;;;;10.50;3.00;;;;;;;;;;5093040;28;20229;-46
2022/11/10 12:29:29;;;;;;;9.23;2.80;;;;;;;;;;5094332;28;20367;-47
2022/11/10 12:31:57;;;;;;;12.80;3.17;;;;;;;;;;5094226;28;20198;-47
2022/11/10 12:34:28;;;;;;;13.13;2.93;;;;;;;;;;5094117;28;20384;-50
2022/11/10 12:36:56;;;;;;;8.47;3.10;;;;;;;;;;5094311;28;20642;-47
2022/11/10 12:39:24;;;;;;;10.13;2.93;;;;;;;;;;5094092;28;20243;-47
2022/11/10 12:41:53;;;;;;;6.93;2.50;;;;;;;;;;5094667;28;20191;-46
2022/11/10 12:44:23;;;;;;;10.00;2.90;;;;;;;;;;5093778;28;20187;-46
2022/11/10 12:46:53;;;;;;;11.97;2.87;;;;;;;;;;5093893;28;20219;-47
2022/11/10 12:49:23;;;;;;;9.07;2.90;;;;;;;;;;5093618;28;20191;-47
2022/11/10 12:51:53;;;;;;;9.10;2.30;;;;;;;;;;5093316;28;20288;-47
2022/11/10 12:54:20;;;;;;;7.27;4.27;;;;;;;;;;5093801;28;20187;-46
2022/11/10 12:56:48;;;;;;;10.23;3.00;;;;;;;;;;5093184;28;20191;-47
2022/11/10 12:59:30;;;;;;;10.70;4.00;;;;;;;;;;5092853;28;20199;-46
2022/11/10 13:01:58;;;;;;;9.17;2.73;;;;;;;;;;5093452;28;20199;-47
2022/11/10 13:04:24;;;;;;;8.77;3.43;;;;;;;;;;5093169;28;20260;-47
2022/11/10 13:06:52;;;;;;;8.20;2.83;;;;;;;;;;5092823;28;20215;-47
2022/11/10 13:09:22;;;;;;;15.07;2.70;;;;;;;;;;5093081;28;20218;-46
2022/11/10 13:12:03;;;;;;;11.70;3.37;;;;;;;;;;5090948;28;20191;-47
2022/11/10 13:14:31;;;;;;;8.43;2.73;;;;;;;;;;5092745;28;20233;-48
2022/11/10 13:16:57;;;;;;;6.63;2.73;;;;;;;;;;5093252;28;20286;-47
2022/11/10 13:19:41;;;;;;;8.60;2.87;;;;;;;;;;5092709;28;20226;-47
2022/11/10 13:22:10;;;;;;;10.50;3.17;;;;;;;;;;5092873;28;20194;-47
2022/11/10 13:24:38;;;;;;;8.60;2.77;;;;;;;;;;5093065;28;20205;-46
2022/11/10 13:27:05;;;;;;;9.13;2.83;;;;;;;;;;5092825;28;20271;-46
2022/11/10 13:29:34;;;;;;;13.97;3.20;;;;;;;;;;5092128;28;20201;-47
2022/11/10 13:32:22;;;;;;;9.17;2.60;;;;;;;;;;5091787;28;20773;-46
2022/11/10 13:34:48;;;;;;;7.63;2.07;;;;;;;;;;5091547;28;20632;-47
2022/11/10 13:37:32;;;;;;;8.67;2.57;;;;;;;;;;5092238;28;20195;-46
2022/11/10 13:40:13;;;;;;;8.53;2.67;;;;;;;;;;5092836;28;20676;-47
2022/11/10 13:42:39;;;;;;;7.37;2.07;;;;;;;;;;5092094;28;20203;-47
2022/11/10 13:45:24;;;;;;;12.80;2.90;;;;;;;;;;5092157;28;20206;-47
2022/11/10 13:47:53;;;;;;;6.13;2.30;;;;;;;;;;5092053;28;20289;-46
2022/11/10 13:50:25;;;;;;;8.97;2.73;;;;;;;;;;5092344;28;20198;-47
2022/11/10 13:52:57;;;;;;;9.93;2.27;;;;;;;;;;5092388;28;20232;-47
2022/11/10 13:55:40;;;;;;;7.27;2.57;;;;;;;;;;5092333;28;20191;-47
2022/11/10 13:58:09;;;;;;;9.37;2.43;;;;;;;;;;5092205;28;20328;-46
2022/11/10 14:00:36;;;;;;;12.10;2.97;;;;;;;;;;5092382;28;20289;-46
2022/11/10 14:03:04;;;;;;;7.47;2.67;;;;;;;;;;5091553;28;20199;-46
2022/11/10 14:06:00;;;;;;;9.13;2.90;;;;;;;;;;5092248;28;20202;-47
2022/11/10 14:08:28;;;;;;;8.20;3.00;;;;;;;;;;5088265;28;20215;-47
2022/11/10 14:10:57;;;;;;;8.63;2.37;;;;;;;;;;5091618;28;20213;-46
2022/11/10 14:13:23;;;;;;;10.43;2.70;;;;;;;;;;5091443;28;20191;-46
2022/11/10 14:15:52;;;;;;;9.33;3.20;;;;;;;;;;5092231;28;20191;-46
2022/11/10 14:18:21;;;;;;;7.07;2.63;;;;;;;;;;5091973;28;20222;-46
2022/11/10 14:20:52;;;;;;;8.20;2.50;;;;;;;;;;5091777;28;20214;-46
2022/11/10 14:23:21;;;;;;;9.10;3.10;;;;;;;;;;5091873;28;20763;-46
2022/11/10 14:25:53;;;;;;;9.20;3.47;;;;;;;;;;5091496;28;20688;-46
2022/11/10 14:28:24;;;;;;;15.30;3.13;;;;;;;;;;5091769;28;20203;-45
2022/11/10 14:30:51;;;;;;;10.20;2.63;;;;;;;;;;5091651;28;20252;-45
2022/11/10 14:33:17;;;;;;;10.07;2.67;;;;;;;;;;5090968;28;20556;-47
2022/11/10 14:35:47;;;;;;;13.87;3.43;;;;;;;;;;5091455;28;20234;-47
2022/11/10 14:38:16;;;;;;;13.23;4.50;;;;;;;;;;5090855;28;20234;-46
2022/11/10 14:40:42;;;;;;;8.87;2.50;;;;;;;;;;5091661;28;20206;-47
2022/11/10 14:43:23;;;;;;;10.60;3.20;;;;;;;;;;5091378;28;20191;-47
2022/11/10 14:45:51;;;;;;;11.07;2.60;;;;;;;;;;5091703;28;20229;-47
2022/11/10 14:48:18;;;;;;;8.60;2.60;;;;;;;;;;5091250;28;20209;-47
2022/11/10 14:50:46;;;;;;;8.60;2.67;;;;;;;;;;5090370;28;20283;-46